sensor_id;sensor_type;location;lat;lon;timestamp;P1;durP1;ratioP1;P2;durP2;ratioP2
74375;SDS011;62812;55.188;61.302;2023-02-20T08:20:07;22.67;;;9.00;;
74375;SDS011;62812;55.188;61.302;2023-02-20T08:22:35;24.27;;;11.80;;
74375;SDS011;62812;55.188;61.302;2023-02-20T08:25:04;25.83;;;15.55;;
74375;SDS011;62812;55.188;61.302;2023-02-20T08:27:34;27.90;;;19.05;;
74375;SDS011;62812;55.188;61.302;2023-02-20T08:30:10;27.05;;;18.90;;
74375;SDS011;62812;55.188;61.302;2023-02-20T08:32:38;22.23;;;9.73;;
74375;SDS011;62812;55.188;61.302;2023-02-20T08:35:06;12.75;;;5.60;;
74375;SDS011;62812;55.188;61.302;2023-02-20T08:37:33;13.25;;;6.05;;
74375;SDS011;62812;55.188;61.302;2023-02-20T08:39:59;11.43;;;6.60;;
74375;SDS011;62812;55.188;61.302;2023-02-20T08:42:31;20.85;;;10.95;;
74375;SDS011;62812;55.188;61.302;2023-02-20T08:44:58;22.23;;;11.57;;
74375;SDS011;62812;55.188;61.302;2023-02-20T08:47:25;20.75;;;13.63;;
74375;SDS011;62812;55.188;61.302;2023-02-20T08:49:51;19.65;;;13.10;;
74375;SDS011;62812;55.188;61.302;2023-02-20T08:52:19;18.95;;;12.80;;
74375;SDS011;62812;55.188;61.302;2023-02-20T08:54:46;20.00;;;9.10;;
74375;SDS011;62812;55.188;61.302;2023-02-20T08:57:13;18.90;;;8.15;;
74375;SDS011;62812;55.188;61.302;2023-02-20T08:59:40;12.75;;;5.28;;
74375;SDS011;62812;55.188;61.302;2023-02-20T09:02:14;15.80;;;8.73;;
74375;SDS011;62812;55.188;61.302;2023-02-20T09:04:44;17.67;;;8.60;;
74375;SDS011;62812;55.188;61.302;2023-02-20T09:07:11;24.20;;;12.68;;
74375;SDS011;62812;55.188;61.302;2023-02-20T09:09:39;33.33;;;16.10;;
74375;SDS011;62812;55.188;61.302;2023-02-20T09:12:09;28.80;;;15.35;;
74375;SDS011;62812;55.188;61.302;2023-02-20T09:14:35;21.00;;;15.55;;
74375;SDS011;62812;55.188;61.302;2023-02-20T09:17:02;26.98;;;16.52;;
74375;SDS011;62812;55.188;61.302;2023-02-20T09:19:30;21.38;;;15.05;;
74375;SDS011;62812;55.188;61.302;2023-02-20T09:21:56;20.77;;;14.73;;
74375;SDS011;62812;55.188;61.302;2023-02-20T09:24:24;19.67;;;9.15;;
74375;SDS011;62812;55.188;61.302;2023-02-20T09:26:54;13.10;;;5.25;;
74375;SDS011;62812;55.188;61.302;2023-02-20T09:29:20;11.13;;;5.47;;
74375;SDS011;62812;55.188;61.302;2023-02-20T09:31:46;11.45;;;5.45;;
74375;SDS011;62812;55.188;61.302;2023-02-20T09:34:13;18.35;;;8.85;;
74375;SDS011;62812;55.188;61.302;2023-02-20T09:36:42;21.92;;;10.82;;
74375;SDS011;62812;55.188;61.302;2023-02-20T09:39:08;20.50;;;11.88;;
74375;SDS011;62812;55.188;61.302;2023-02-20T09:41:51;17.17;;;11.82;;
74375;SDS011;62812;55.188;61.302;2023-02-20T09:44:31;24.88;;;11.23;;
74375;SDS011;62812;55.188;61.302;2023-02-20T09:47:16;21.92;;;15.02;;
74375;SDS011;62812;55.188;61.302;2023-02-20T09:49:56;25.55;;;14.80;;
74375;SDS011;62812;55.188;61.302;2023-02-20T09:52:29;22.52;;;13.85;;
74375;SDS011;62812;55.188;61.302;2023-02-20T09:55:04;21.48;;;8.52;;
74375;SDS011;62812;55.188;61.302;2023-02-20T10:00:42;13.40;;;6.53;;
74375;SDS011;62812;55.188;61.302;2023-02-20T10:03:15;13.55;;;8.02;;
74375;SDS011;62812;55.188;61.302;2023-02-20T10:05:50;18.85;;;10.50;;
74375;SDS011;62812;55.188;61.302;2023-02-20T10:08:18;20.13;;;12.40;;
74375;SDS011;62812;55.188;61.302;2023-02-20T10:10:47;20.58;;;13.52;;
74375;SDS011;62812;55.188;61.302;2023-02-20T10:13:25;18.60;;;11.95;;
74375;SDS011;62812;55.188;61.302;2023-02-20T10:16:05;25.33;;;13.40;;
74375;SDS011;62812;55.188;61.302;2023-02-20T10:18:44;19.90;;;12.95;;
74375;SDS011;62812;55.188;61.302;2023-02-20T10:21:16;22.05;;;13.43;;
74375;SDS011;62812;55.188;61.302;2023-02-20T10:23:53;22.73;;;13.50;;
74375;SDS011;62812;55.188;61.302;2023-02-20T10:26:28;23.17;;;14.88;;
74375;SDS011;62812;55.188;61.302;2023-02-20T10:29:00;25.55;;;15.50;;
74375;SDS011;62812;55.188;61.302;2023-02-20T10:31:39;25.38;;;14.73;;
74375;SDS011;62812;55.188;61.302;2023-02-20T10:34:11;22.30;;;15.00;;
74375;SDS011;62812;55.188;61.302;2023-02-20T10:36:44;24.13;;;9.37;;
74375;SDS011;62812;55.188;61.302;2023-02-20T10:39:16;14.55;;;5.32;;
74375;SDS011;62812;55.188;61.302;2023-02-20T10:41:46;14.13;;;6.22;;
74375;SDS011;62812;55.188;61.302;2023-02-20T10:44:21;15.27;;;7.25;;
74375;SDS011;62812;55.188;61.302;2023-02-20T10:46:57;12.30;;;7.32;;
74375;SDS011;62812;55.188;61.302;2023-02-20T10:49:30;19.85;;;9.93;;
74375;SDS011;62812;55.188;61.302;2023-02-20T10:52:02;16.65;;;10.93;;
74375;SDS011;62812;55.188;61.302;2023-02-20T10:54:34;18.55;;;10.45;;
74375;SDS011;62812;55.188;61.302;2023-02-20T10:57:05;21.40;;;12.63;;
74375;SDS011;62812;55.188;61.302;2023-02-20T10:59:37;32.58;;;16.42;;
74375;SDS011;62812;55.188;61.302;2023-02-20T11:02:14;23.63;;;14.70;;
74375;SDS011;62812;55.188;61.302;2023-02-20T11:04:45;22.05;;;14.80;;
74375;SDS011;62812;55.188;61.302;2023-02-20T11:07:16;25.02;;;16.90;;
74375;SDS011;62812;55.188;61.302;2023-02-20T11:09:44;23.33;;;16.73;;
74375;SDS011;62812;55.188;61.302;2023-02-20T11:12:15;24.13;;;16.23;;
74375;SDS011;62812;55.188;61.302;2023-02-20T11:14:48;30.30;;;21.42;;
74375;SDS011;62812;55.188;61.302;2023-02-20T11:17:20;26.60;;;19.45;;
74375;SDS011;62812;55.188;61.302;2023-02-20T11:19:54;27.20;;;20.13;;
74375;SDS011;62812;55.188;61.302;2023-02-20T11:25:12;33.35;;;25.35;;
74375;SDS011;62812;55.188;61.302;2023-02-20T11:27:41;35.05;;;24.52;;
74375;SDS011;62812;55.188;61.302;2023-02-20T11:30:17;21.83;;;8.93;;
74375;SDS011;62812;55.188;61.302;2023-02-20T11:33:04;18.05;;;6.82;;
74375;SDS011;62812;55.188;61.302;2023-02-20T11:35:37;18.38;;;9.55;;
74375;SDS011;62812;55.188;61.302;2023-02-20T11:38:29;25.33;;;12.75;;
74375;SDS011;62812;55.188;61.302;2023-02-20T11:44:04;31.58;;;22.33;;
74375;SDS011;62812;55.188;61.302;2023-02-20T11:46:46;33.58;;;22.50;;
74375;SDS011;62812;55.188;61.302;2023-02-20T12:01:11;21.95;;;15.27;;
74375;SDS011;62812;55.188;61.302;2023-02-20T12:03:56;23.20;;;9.68;;
74375;SDS011;62812;55.188;61.302;2023-02-20T12:09:10;18.25;;;8.35;;
74375;SDS011;62812;55.188;61.302;2023-02-20T12:11:42;20.85;;;10.80;;
74375;SDS011;62812;55.188;61.302;2023-02-20T12:14:11;14.88;;;10.57;;
74375;SDS011;62812;55.188;61.302;2023-02-20T12:16:49;22.80;;;10.88;;
74375;SDS011;62812;55.188;61.302;2023-02-20T12:19:31;16.25;;;7.28;;
74375;SDS011;62812;55.188;61.302;2023-02-20T12:22:08;15.77;;;7.82;;
74375;SDS011;62812;55.188;61.302;2023-02-20T12:24:46;25.05;;;12.23;;
74375;SDS011;62812;55.188;61.302;2023-02-20T12:27:39;25.67;;;15.75;;
74375;SDS011;62812;55.188;61.302;2023-02-20T12:30:26;27.05;;;18.95;;
74375;SDS011;62812;55.188;61.302;2023-02-20T12:33:17;34.45;;;21.10;;
74375;SDS011;62812;55.188;61.302;2023-02-20T12:36:29;37.90;;;28.02;;
74375;SDS011;62812;55.188;61.302;2023-02-20T12:39:07;35.45;;;27.73;;
74375;SDS011;62812;55.188;61.302;2023-02-20T12:41:47;42.70;;;32.25;;
74375;SDS011;62812;55.188;61.302;2023-02-20T12:44:26;45.95;;;33.13;;
74375;SDS011;62812;55.188;61.302;2023-02-20T12:47:13;48.05;;;33.65;;
74375;SDS011;62812;55.188;61.302;2023-02-20T12:52:48;45.78;;;34.15;;
74375;SDS011;62812;55.188;61.302;2023-02-20T12:58:32;48.90;;;35.08;;
74375;SDS011;62812;55.188;61.302;2023-02-20T13:01:11;20.98;;;8.38;;
74375;SDS011;62812;55.188;61.302;2023-02-20T13:03:42;12.27;;;5.72;;
74375;SDS011;62812;55.188;61.302;2023-02-20T13:06:16;17.30;;;9.75;;
74375;SDS011;62812;55.188;61.302;2023-02-20T13:08:54;24.17;;;17.73;;
74375;SDS011;62812;55.188;61.302;2023-02-20T13:11:32;25.13;;;20.67;;
74375;SDS011;62812;55.188;61.302;2023-02-20T13:17:07;45.08;;;32.42;;
74375;SDS011;62812;55.188;61.302;2023-02-20T13:19:51;18.52;;;8.02;;
74375;SDS011;62812;55.188;61.302;2023-02-20T13:22:22;17.30;;;7.57;;
74375;SDS011;62812;55.188;61.302;2023-02-20T13:24:49;24.08;;;14.38;;
74375;SDS011;62812;55.188;61.302;2023-02-20T13:27:26;26.90;;;18.40;;
74375;SDS011;62812;55.188;61.302;2023-02-20T13:29:57;37.50;;;26.50;;
74375;SDS011;62812;55.188;61.302;2023-02-20T13:32:30;38.47;;;29.33;;
74375;SDS011;62812;55.188;61.302;2023-02-20T13:38:32;76.07;;;40.42;;
74375;SDS011;62812;55.188;61.302;2023-02-20T13:41:22;78.15;;;41.47;;
74375;SDS011;62812;55.188;61.302;2023-02-20T13:43:53;63.72;;;39.92;;
74375;SDS011;62812;55.188;61.302;2023-02-20T13:46:54;31.50;;;9.80;;
74375;SDS011;62812;55.188;61.302;2023-02-20T13:52:30;32.53;;;21.92;;
74375;SDS011;62812;55.188;61.302;2023-02-20T13:55:19;44.70;;;30.05;;
74375;SDS011;62812;55.188;61.302;2023-02-20T13:58:11;51.88;;;35.90;;
74375;SDS011;62812;55.188;61.302;2023-02-20T14:00:43;52.25;;;37.88;;
74375;SDS011;62812;55.188;61.302;2023-02-20T14:03:24;59.40;;;39.25;;
74375;SDS011;62812;55.188;61.302;2023-02-20T14:06:20;18.98;;;8.18;;
74375;SDS011;62812;55.188;61.302;2023-02-20T14:09:30;14.65;;;7.88;;
74375;SDS011;62812;55.188;61.302;2023-02-20T14:15:12;23.87;;;10.07;;
74375;SDS011;62812;55.188;61.302;2023-02-20T14:17:40;20.83;;;8.50;;
74375;SDS011;62812;55.188;61.302;2023-02-20T14:20:11;17.67;;;11.25;;
74375;SDS011;62812;55.188;61.302;2023-02-20T14:22:44;39.15;;;24.30;;
74375;SDS011;62812;55.188;61.302;2023-02-20T14:25:17;24.88;;;9.35;;
74375;SDS011;62812;55.188;61.302;2023-02-20T14:27:48;18.17;;;8.43;;
74375;SDS011;62812;55.188;61.302;2023-02-20T14:30:18;21.75;;;13.23;;
74375;SDS011;62812;55.188;61.302;2023-02-20T14:32:48;28.00;;;20.95;;
74375;SDS011;62812;55.188;61.302;2023-02-20T14:35:35;39.15;;;28.65;;
74375;SDS011;62812;55.188;61.302;2023-02-20T14:38:17;50.58;;;35.30;;
74375;SDS011;62812;55.188;61.302;2023-02-20T14:40:53;45.97;;;34.75;;
74375;SDS011;62812;55.188;61.302;2023-02-20T14:43:21;57.65;;;37.28;;
74375;SDS011;62812;55.188;61.302;2023-02-20T14:45:58;59.95;;;39.33;;
74375;SDS011;62812;55.188;61.302;2023-02-20T14:48:28;57.72;;;40.42;;
74375;SDS011;62812;55.188;61.302;2023-02-20T14:51:11;20.73;;;8.32;;
74375;SDS011;62812;55.188;61.302;2023-02-20T14:53:40;22.40;;;11.57;;
74375;SDS011;62812;55.188;61.302;2023-02-20T14:56:11;40.78;;;23.70;;
74375;SDS011;62812;55.188;61.302;2023-02-20T14:58:39;48.78;;;33.28;;
74375;SDS011;62812;55.188;61.302;2023-02-20T15:01:15;26.37;;;11.53;;
74375;SDS011;62812;55.188;61.302;2023-02-20T15:03:43;28.55;;;10.98;;
74375;SDS011;62812;55.188;61.302;2023-02-20T15:06:23;32.15;;;21.40;;
74375;SDS011;62812;55.188;61.302;2023-02-20T15:08:54;25.13;;;10.35;;
74375;SDS011;62812;55.188;61.302;2023-02-20T15:11:23;15.75;;;7.82;;
74375;SDS011;62812;55.188;61.302;2023-02-20T15:13:50;22.30;;;14.85;;
74375;SDS011;62812;55.188;61.302;2023-02-20T15:16:20;38.92;;;26.33;;
74375;SDS011;62812;55.188;61.302;2023-02-20T15:18:48;47.88;;;31.08;;
74375;SDS011;62812;55.188;61.302;2023-02-20T15:21:34;27.52;;;11.23;;
74375;SDS011;62812;55.188;61.302;2023-02-20T15:24:13;21.20;;;10.63;;
74375;SDS011;62812;55.188;61.302;2023-02-20T15:27:10;33.42;;;21.75;;
74375;SDS011;62812;55.188;61.302;2023-02-20T15:29:39;33.85;;;12.25;;
74375;SDS011;62812;55.188;61.302;2023-02-20T15:32:16;29.60;;;10.05;;
74375;SDS011;62812;55.188;61.302;2023-02-20T15:34:49;30.55;;;17.70;;
74375;SDS011;62812;55.188;61.302;2023-02-20T15:37:26;31.55;;;12.73;;
74375;SDS011;62812;55.188;61.302;2023-02-20T15:39:54;25.80;;;10.75;;
74375;SDS011;62812;55.188;61.302;2023-02-20T15:42:22;23.60;;;14.90;;
74375;SDS011;62812;55.188;61.302;2023-02-20T15:44:49;25.50;;;12.02;;
74375;SDS011;62812;55.188;61.302;2023-02-20T15:47:18;22.10;;;9.55;;
74375;SDS011;62812;55.188;61.302;2023-02-20T15:49:47;23.02;;;14.23;;
74375;SDS011;62812;55.188;61.302;2023-02-20T15:52:14;24.58;;;10.85;;
74375;SDS011;62812;55.188;61.302;2023-02-20T15:54:48;19.92;;;8.77;;
74375;SDS011;62812;55.188;61.302;2023-02-20T15:57:18;28.85;;;15.48;;
74375;SDS011;62812;55.188;61.302;2023-02-20T15:59:44;33.95;;;25.33;;
74375;SDS011;62812;55.188;61.302;2023-02-20T16:02:16;24.58;;;10.73;;
74375;SDS011;62812;55.188;61.302;2023-02-20T16:04:51;20.80;;;9.93;;
74375;SDS011;62812;55.188;61.302;2023-02-20T16:07:18;32.45;;;20.20;;
74375;SDS011;62812;55.188;61.302;2023-02-20T16:09:46;45.45;;;29.25;;
74375;SDS011;62812;55.188;61.302;2023-02-20T16:12:14;44.25;;;32.80;;
74375;SDS011;62812;55.188;61.302;2023-02-20T16:14:43;59.53;;;37.25;;
74375;SDS011;62812;55.188;61.302;2023-02-20T16:17:12;23.33;;;10.18;;
74375;SDS011;62812;55.188;61.302;2023-02-20T16:19:46;21.25;;;11.13;;
74375;SDS011;62812;55.188;61.302;2023-02-20T16:22:12;34.22;;;22.48;;
74375;SDS011;62812;55.188;61.302;2023-02-20T16:24:39;23.58;;;10.50;;
74375;SDS011;62812;55.188;61.302;2023-02-20T16:27:07;19.85;;;8.18;;
74375;SDS011;62812;55.188;61.302;2023-02-20T16:29:45;27.20;;;18.38;;
74375;SDS011;62812;55.188;61.302;2023-02-20T16:32:25;37.60;;;27.67;;
74375;SDS011;62812;55.188;61.302;2023-02-20T16:35:01;51.85;;;36.75;;
74375;SDS011;62812;55.188;61.302;2023-02-20T16:37:28;58.63;;;39.97;;
74375;SDS011;62812;55.188;61.302;2023-02-20T16:39:55;64.38;;;41.13;;
74375;SDS011;62812;55.188;61.302;2023-02-20T16:42:23;57.97;;;39.08;;
74375;SDS011;62812;55.188;61.302;2023-02-20T16:44:52;26.92;;;11.27;;
74375;SDS011;62812;55.188;61.302;2023-02-20T16:50:09;40.33;;;26.77;;
74375;SDS011;62812;55.188;61.302;2023-02-20T16:52:37;24.85;;;11.98;;
74375;SDS011;62812;55.188;61.302;2023-02-20T16:55:05;25.48;;;9.95;;
74375;SDS011;62812;55.188;61.302;2023-02-20T16:57:39;45.33;;;25.20;;
74375;SDS011;62812;55.188;61.302;2023-02-20T17:00:06;56.08;;;36.28;;
74375;SDS011;62812;55.188;61.302;2023-02-20T17:02:33;25.08;;;11.23;;
74375;SDS011;62812;55.188;61.302;2023-02-20T17:05:01;24.95;;;12.23;;
74375;SDS011;62812;55.188;61.302;2023-02-20T17:07:29;35.40;;;24.35;;
74375;SDS011;62812;55.188;61.302;2023-02-20T17:09:56;50.85;;;35.17;;
74375;SDS011;62812;55.188;61.302;2023-02-20T17:12:22;64.53;;;40.33;;
74375;SDS011;62812;55.188;61.302;2023-02-20T17:14:50;64.68;;;41.83;;
74375;SDS011;62812;55.188;61.302;2023-02-20T17:17:18;66.55;;;41.00;;
74375;SDS011;62812;55.188;61.302;2023-02-20T17:19:48;71.07;;;41.92;;
74375;SDS011;62812;55.188;61.302;2023-02-20T17:22:18;74.90;;;43.90;;
74375;SDS011;62812;55.188;61.302;2023-02-20T17:24:47;27.10;;;11.18;;
74375;SDS011;62812;55.188;61.302;2023-02-20T17:27:14;29.17;;;16.58;;
74375;SDS011;62812;55.188;61.302;2023-02-20T17:29:41;24.50;;;10.80;;
74375;SDS011;62812;55.188;61.302;2023-02-20T17:32:08;24.33;;;11.68;;
74375;SDS011;62812;55.188;61.302;2023-02-20T17:34:35;37.17;;;22.58;;
74375;SDS011;62812;55.188;61.302;2023-02-20T17:37:05;23.27;;;10.63;;
74375;SDS011;62812;55.188;61.302;2023-02-20T17:39:32;22.02;;;9.98;;
74375;SDS011;62812;55.188;61.302;2023-02-20T17:42:04;37.53;;;24.70;;
74375;SDS011;62812;55.188;61.302;2023-02-20T17:44:38;24.52;;;10.93;;
74375;SDS011;62812;55.188;61.302;2023-02-20T17:47:08;25.77;;;10.40;;
74375;SDS011;62812;55.188;61.302;2023-02-20T17:52:28;25.30;;;11.05;;
74375;SDS011;62812;55.188;61.302;2023-02-20T17:54:56;22.05;;;9.77;;
74375;SDS011;62812;55.188;61.302;2023-02-20T17:57:33;35.10;;;23.98;;
74375;SDS011;62812;55.188;61.302;2023-02-20T18:00:14;54.88;;;37.30;;
74375;SDS011;62812;55.188;61.302;2023-02-20T18:02:51;25.42;;;10.48;;
74375;SDS011;62812;55.188;61.302;2023-02-20T18:11:18;65.65;;;41.75;;
74375;SDS011;62812;55.188;61.302;2023-02-20T18:13:53;69.85;;;42.28;;
74375;SDS011;62812;55.188;61.302;2023-02-20T18:16:20;71.40;;;43.33;;
74375;SDS011;62812;55.188;61.302;2023-02-20T18:18:47;74.53;;;43.78;;
74375;SDS011;62812;55.188;61.302;2023-02-20T18:21:17;81.25;;;44.42;;
74375;SDS011;62812;55.188;61.302;2023-02-20T18:23:47;23.03;;;10.37;;
74375;SDS011;62812;55.188;61.302;2023-02-20T18:26:14;30.05;;;18.20;;
74375;SDS011;62812;55.188;61.302;2023-02-20T18:28:41;27.10;;;11.00;;
74375;SDS011;62812;55.188;61.302;2023-02-20T18:31:11;22.65;;;11.23;;
74375;SDS011;62812;55.188;61.302;2023-02-20T18:33:40;47.10;;;28.85;;
74375;SDS011;62812;55.188;61.302;2023-02-20T18:36:14;57.25;;;37.80;;
74375;SDS011;62812;55.188;61.302;2023-02-20T18:38:41;26.07;;;11.20;;
74375;SDS011;62812;55.188;61.302;2023-02-20T18:41:24;29.93;;;12.57;;
74375;SDS011;62812;55.188;61.302;2023-02-20T18:44:04;20.73;;;11.98;;
74375;SDS011;62812;55.188;61.302;2023-02-20T18:46:39;39.33;;;27.20;;
74375;SDS011;62812;55.188;61.302;2023-02-20T18:49:06;27.88;;;12.38;;
74375;SDS011;62812;55.188;61.302;2023-02-20T18:51:33;31.98;;;14.77;;
74375;SDS011;62812;55.188;61.302;2023-02-20T18:54:19;50.40;;;33.35;;
74375;SDS011;62812;55.188;61.302;2023-02-20T18:56:57;37.17;;;14.95;;
74375;SDS011;62812;55.188;61.302;2023-02-20T18:59:27;26.20;;;12.85;;
74375;SDS011;62812;55.188;61.302;2023-02-20T19:01:57;44.65;;;28.30;;
74375;SDS011;62812;55.188;61.302;2023-02-20T19:04:24;31.25;;;14.02;;
74375;SDS011;62812;55.188;61.302;2023-02-20T19:07:02;31.52;;;16.48;;
74375;SDS011;62812;55.188;61.302;2023-02-20T19:09:30;50.60;;;29.95;;
74375;SDS011;62812;55.188;61.302;2023-02-20T19:12:03;34.53;;;14.80;;
74375;SDS011;62812;55.188;61.302;2023-02-20T19:14:33;31.25;;;14.43;;
74375;SDS011;62812;55.188;61.302;2023-02-20T19:17:01;41.90;;;27.48;;
74375;SDS011;62812;55.188;61.302;2023-02-20T19:19:28;57.17;;;38.42;;
74375;SDS011;62812;55.188;61.302;2023-02-20T19:21:56;30.33;;;14.17;;
74375;SDS011;62812;55.188;61.302;2023-02-20T19:24:23;33.08;;;14.38;;
74375;SDS011;62812;55.188;61.302;2023-02-20T19:26:49;40.22;;;27.80;;
74375;SDS011;62812;55.188;61.302;2023-02-20T19:29:16;60.35;;;40.15;;
74375;SDS011;62812;55.188;61.302;2023-02-20T19:31:43;67.70;;;42.75;;
74375;SDS011;62812;55.188;61.302;2023-02-20T19:34:20;77.15;;;44.13;;
74375;SDS011;62812;55.188;61.302;2023-02-20T19:36:51;83.15;;;46.30;;
74375;SDS011;62812;55.188;61.302;2023-02-20T19:39:23;31.33;;;12.68;;
74375;SDS011;62812;55.188;61.302;2023-02-20T19:41:50;32.55;;;17.83;;
74375;SDS011;62812;55.188;61.302;2023-02-20T19:44:17;50.25;;;34.33;;
74375;SDS011;62812;55.188;61.302;2023-02-20T19:46:49;66.38;;;42.33;;
74375;SDS011;62812;55.188;61.302;2023-02-20T19:49:16;82.75;;;44.22;;
74375;SDS011;62812;55.188;61.302;2023-02-20T19:51:47;86.10;;;47.03;;
74375;SDS011;62812;55.188;61.302;2023-02-20T19:54:16;85.63;;;46.92;;
74375;SDS011;62812;55.188;61.302;2023-02-20T19:56:51;88.82;;;47.95;;
74375;SDS011;62812;55.188;61.302;2023-02-20T19:59:23;31.40;;;12.25;;
74375;SDS011;62812;55.188;61.302;2023-02-20T20:01:57;36.47;;;17.88;;
74375;SDS011;62812;55.188;61.302;2023-02-20T20:04:27;55.70;;;37.05;;
74375;SDS011;62812;55.188;61.302;2023-02-20T20:06:55;30.75;;;12.25;;
74375;SDS011;62812;55.188;61.302;2023-02-20T20:09:25;30.40;;;15.75;;
74375;SDS011;62812;55.188;61.302;2023-02-20T20:11:52;48.55;;;32.67;;
74375;SDS011;62812;55.188;61.302;2023-02-20T20:14:20;62.15;;;41.20;;
74375;SDS011;62812;55.188;61.302;2023-02-20T20:16:49;30.88;;;13.45;;
74375;SDS011;62812;55.188;61.302;2023-02-20T20:19:32;30.88;;;15.98;;
74375;SDS011;62812;55.188;61.302;2023-02-20T20:22:05;54.55;;;35.17;;
74375;SDS011;62812;55.188;61.302;2023-02-20T20:24:35;67.72;;;40.80;;
74375;SDS011;62812;55.188;61.302;2023-02-20T20:27:04;30.65;;;13.40;;
74375;SDS011;62812;55.188;61.302;2023-02-20T20:29:37;31.35;;;15.55;;
74375;SDS011;62812;55.188;61.302;2023-02-20T20:32:09;47.17;;;33.38;;
74375;SDS011;62812;55.188;61.302;2023-02-20T20:34:43;31.75;;;13.77;;
74375;SDS011;62812;55.188;61.302;2023-02-20T20:37:15;32.75;;;15.57;;
74375;SDS011;62812;55.188;61.302;2023-02-20T20:39:44;34.50;;;14.30;;
74375;SDS011;62812;55.188;61.302;2023-02-20T20:42:20;31.88;;;14.18;;
74375;SDS011;62812;55.188;61.302;2023-02-20T20:44:48;43.47;;;26.13;;
74375;SDS011;62812;55.188;61.302;2023-02-20T20:47:15;54.92;;;38.78;;
74375;SDS011;62812;55.188;61.302;2023-02-20T20:49:43;62.40;;;40.42;;
74375;SDS011;62812;55.188;61.302;2023-02-20T20:52:11;75.53;;;43.28;;
74375;SDS011;62812;55.188;61.302;2023-02-20T20:54:37;77.75;;;44.28;;
74375;SDS011;62812;55.188;61.302;2023-02-20T20:57:03;82.72;;;46.08;;
74375;SDS011;62812;55.188;61.302;2023-02-20T20:59:30;84.13;;;47.60;;
74375;SDS011;62812;55.188;61.302;2023-02-20T21:01:58;31.52;;;13.52;;
74375;SDS011;62812;55.188;61.302;2023-02-20T21:04:25;36.38;;;20.33;;
74375;SDS011;62812;55.188;61.302;2023-02-20T21:06:53;52.70;;;35.83;;
74375;SDS011;62812;55.188;61.302;2023-02-20T21:09:23;69.30;;;42.38;;
74375;SDS011;62812;55.188;61.302;2023-02-20T21:11:51;32.13;;;13.68;;
74375;SDS011;62812;55.188;61.302;2023-02-20T21:14:17;36.28;;;17.90;;
74375;SDS011;62812;55.188;61.302;2023-02-20T21:16:43;51.58;;;32.80;;
74375;SDS011;62812;55.188;61.302;2023-02-20T21:19:10;70.72;;;41.30;;
74375;SDS011;62812;55.188;61.302;2023-02-20T21:21:36;74.18;;;46.42;;
74375;SDS011;62812;55.188;61.302;2023-02-20T21:24:05;37.53;;;15.90;;
74375;SDS011;62812;55.188;61.302;2023-02-20T21:26:32;33.42;;;17.33;;
74375;SDS011;62812;55.188;61.302;2023-02-20T21:29:02;51.85;;;34.22;;
74375;SDS011;62812;55.188;61.302;2023-02-20T21:31:31;35.05;;;15.38;;
74375;SDS011;62812;55.188;61.302;2023-02-20T21:33:57;33.55;;;14.70;;
74375;SDS011;62812;55.188;61.302;2023-02-20T21:36:24;48.67;;;30.25;;
74375;SDS011;62812;55.188;61.302;2023-02-20T21:39:00;34.10;;;14.90;;
74375;SDS011;62812;55.188;61.302;2023-02-20T21:41:28;27.17;;;14.02;;
74375;SDS011;62812;55.188;61.302;2023-02-20T21:44:14;48.20;;;31.02;;
74375;SDS011;62812;55.188;61.302;2023-02-20T21:46:53;65.45;;;41.47;;
74375;SDS011;62812;55.188;61.302;2023-02-20T21:49:21;32.70;;;14.05;;
74375;SDS011;62812;55.188;61.302;2023-02-20T21:51:47;34.60;;;14.40;;
74375;SDS011;62812;55.188;61.302;2023-02-20T21:54:17;44.42;;;30.02;;
74375;SDS011;62812;55.188;61.302;2023-02-20T21:56:46;31.27;;;13.63;;
74375;SDS011;62812;55.188;61.302;2023-02-20T21:59:13;29.48;;;14.35;;
74375;SDS011;62812;55.188;61.302;2023-02-20T22:01:40;32.05;;;14.55;;
74375;SDS011;62812;55.188;61.302;2023-02-20T22:04:09;26.52;;;12.13;;
74375;SDS011;62812;55.188;61.302;2023-02-20T22:06:37;39.10;;;23.67;;
74375;SDS011;62812;55.188;61.302;2023-02-20T22:09:04;55.30;;;34.83;;
74375;SDS011;62812;55.188;61.302;2023-02-20T22:11:52;74.50;;;45.03;;
74375;SDS011;62812;55.188;61.302;2023-02-20T22:14:37;80.18;;;45.08;;
74375;SDS011;62812;55.188;61.302;2023-02-20T22:17:22;85.38;;;46.90;;
74375;SDS011;62812;55.188;61.302;2023-02-20T22:20:11;88.45;;;47.50;;
74375;SDS011;62812;55.188;61.302;2023-02-20T22:22:59;37.92;;;14.07;;
74375;SDS011;62812;55.188;61.302;2023-02-20T22:25:44;35.78;;;21.20;;
74375;SDS011;62812;55.188;61.302;2023-02-20T22:28:30;62.58;;;39.55;;
74375;SDS011;62812;55.188;61.302;2023-02-20T22:31:15;73.13;;;42.42;;
74375;SDS011;62812;55.188;61.302;2023-02-20T22:33:59;78.38;;;45.20;;
74375;SDS011;62812;55.188;61.302;2023-02-20T22:36:46;34.27;;;14.40;;
74375;SDS011;62812;55.188;61.302;2023-02-20T22:39:31;34.70;;;17.88;;
74375;SDS011;62812;55.188;61.302;2023-02-20T22:42:16;36.15;;;15.13;;
74375;SDS011;62812;55.188;61.302;2023-02-20T22:45:03;29.10;;;13.77;;
74375;SDS011;62812;55.188;61.302;2023-02-20T22:47:48;44.47;;;27.17;;
74375;SDS011;62812;55.188;61.302;2023-02-20T22:50:33;34.10;;;14.88;;
74375;SDS011;62812;55.188;61.302;2023-02-20T22:53:19;35.90;;;15.63;;
74375;SDS011;62812;55.188;61.302;2023-02-20T22:56:04;31.88;;;12.30;;
74375;SDS011;62812;55.188;61.302;2023-02-20T22:58:49;34.65;;;19.95;;
74375;SDS011;62812;55.188;61.302;2023-02-20T23:01:35;51.80;;;32.55;;
74375;SDS011;62812;55.188;61.302;2023-02-20T23:04:20;61.13;;;40.30;;
74375;SDS011;62812;55.188;61.302;2023-02-20T23:07:06;55.72;;;38.78;;
74375;SDS011;62812;55.188;61.302;2023-02-20T23:09:51;36.88;;;16.10;;
74375;SDS011;62812;55.188;61.302;2023-02-20T23:12:36;35.90;;;15.65;;
74375;SDS011;62812;55.188;61.302;2023-02-20T23:15:21;46.38;;;25.45;;
74375;SDS011;62812;55.188;61.302;2023-02-20T23:18:08;63.53;;;36.83;;
74375;SDS011;62812;55.188;61.302;2023-02-20T23:20:53;36.92;;;15.30;;
74375;SDS011;62812;55.188;61.302;2023-02-20T23:23:38;33.97;;;13.95;;
74375;SDS011;62812;55.188;61.302;2023-02-20T23:26:24;50.00;;;27.38;;
74375;SDS011;62812;55.188;61.302;2023-02-20T23:29:09;58.55;;;36.75;;
74375;SDS011;62812;55.188;61.302;2023-02-20T23:31:54;64.68;;;40.92;;
74375;SDS011;62812;55.188;61.302;2023-02-20T23:34:40;36.75;;;14.75;;
74375;SDS011;62812;55.188;61.302;2023-02-20T23:37:25;35.72;;;14.35;;
74375;SDS011;62812;55.188;61.302;2023-02-20T23:40:10;42.45;;;27.17;;
74375;SDS011;62812;55.188;61.302;2023-02-20T23:42:55;61.55;;;38.15;;
74375;SDS011;62812;55.188;61.302;2023-02-20T23:45:41;68.20;;;43.03;;
74375;SDS011;62812;55.188;61.302;2023-02-20T23:48:26;68.47;;;42.10;;
74375;SDS011;62812;55.188;61.302;2023-02-20T23:51:12;74.15;;;46.20;;
74375;SDS011;62812;55.188;61.302;2023-02-20T23:53:57;34.53;;;14.95;;
74375;SDS011;62812;55.188;61.302;2023-02-20T23:56:42;27.17;;;15.00;;
74375;SDS011;62812;55.188;61.302;2023-02-20T23:59:27;43.60;;;27.80;;
